sensor_id;sensor_type;location;lat;lon;timestamp;temperature;humidity
53498;DHT22;39382;47.168;16.008;2023-03-01T00:01:58;-1.00;99.90
53498;DHT22;39382;47.168;16.008;2023-03-01T00:04:24;-1.00;99.90
53498;DHT22;39382;47.168;16.008;2023-03-01T00:06:50;-1.00;99.90
53498;DHT22;39382;47.168;16.008;2023-03-01T00:09:16;-1.00;99.90
53498;DHT22;39382;47.168;16.008;2023-03-01T00:11:42;-1.00;99.90
53498;DHT22;39382;47.168;16.008;2023-03-01T00:14:08;-0.80;99.90
53498;DHT22;39382;47.168;16.008;2023-03-01T00:16:39;-0.80;99.90
53498;DHT22;39382;47.168;16.008;2023-03-01T00:19:06;-0.80;99.90
53498;DHT22;39382;47.168;16.008;2023-03-01T00:21:32;-0.80;99.90
53498;DHT22;39382;47.168;16.008;2023-03-01T00:23:59;-0.80;99.90
53498;DHT22;39382;47.168;16.008;2023-03-01T00:26:25;-0.70;99.90
53498;DHT22;39382;47.168;16.008;2023-03-01T00:28:51;-0.70;99.90
53498;DHT22;39382;47.168;16.008;2023-03-01T00:31:20;-0.70;99.90
53498;DHT22;39382;47.168;16.008;2023-03-01T00:33:46;-0.70;99.90
53498;DHT22;39382;47.168;16.008;2023-03-01T00:36:13;-0.70;99.90
53498;DHT22;39382;47.168;16.008;2023-03-01T00:38:41;-0.70;99.90
53498;DHT22;39382;47.168;16.008;2023-03-01T00:41:12;-0.70;99.90
53498;DHT22;39382;47.168;16.008;2023-03-01T00:43:39;-0.70;99.90
53498;DHT22;39382;47.168;16.008;2023-03-01T00:46:08;-0.80;99.90
53498;DHT22;39382;47.168;16.008;2023-03-01T00:48:35;-0.80;99.90
53498;DHT22;39382;47.168;16.008;2023-03-01T00:51:18;-0.70;99.90
53498;DHT22;39382;47.168;16.008;2023-03-01T00:53:44;-0.60;99.90
53498;DHT22;39382;47.168;16.008;2023-03-01T00:56:12;-0.60;99.90
53498;DHT22;39382;47.168;16.008;2023-03-01T00:58:38;-0.60;99.90
53498;DHT22;39382;47.168;16.008;2023-03-01T01:03:52;-0.60;99.90
53498;DHT22;39382;47.168;16.008;2023-03-01T01:06:21;-0.60;99.90
53498;DHT22;39382;47.168;16.008;2023-03-01T01:08:48;-0.60;99.90
53498;DHT22;39382;47.168;16.008;2023-03-01T01:11:15;-0.50;99.90
53498;DHT22;39382;47.168;16.008;2023-03-01T01:13:43;-0.50;99.90
53498;DHT22;39382;47.168;16.008;2023-03-01T01:16:09;-0.50;99.90
53498;DHT22;39382;47.168;16.008;2023-03-01T01:18:35;-0.50;99.90
53498;DHT22;39382;47.168;16.008;2023-03-01T01:21:06;-0.50;99.90
53498;DHT22;39382;47.168;16.008;2023-03-01T01:23:32;-0.50;99.90
53498;DHT22;39382;47.168;16.008;2023-03-01T01:26:22;-0.50;99.90
53498;DHT22;39382;47.168;16.008;2023-03-01T01:28:48;-0.50;99.90
53498;DHT22;39382;47.168;16.008;2023-03-01T01:31:15;-0.50;99.90
53498;DHT22;39382;47.168;16.008;2023-03-01T01:33:41;-0.60;99.90
53498;DHT22;39382;47.168;16.008;2023-03-01T01:36:07;-0.60;99.90
53498;DHT22;39382;47.168;16.008;2023-03-01T01:38:34;-0.50;99.90
53498;DHT22;39382;47.168;16.008;2023-03-01T01:41:00;-0.40;99.90
53498;DHT22;39382;47.168;16.008;2023-03-01T01:43:33;-0.40;99.90
53498;DHT22;39382;47.168;16.008;2023-03-01T01:46:25;-0.30;99.90
53498;DHT22;39382;47.168;16.008;2023-03-01T01:49:05;-0.30;99.90
53498;DHT22;39382;47.168;16.008;2023-03-01T01:51:37;-0.30;99.90
53498;DHT22;39382;47.168;16.008;2023-03-01T01:54:10;-0.40;99.90
53498;DHT22;39382;47.168;16.008;2023-03-01T01:56:40;-0.40;99.90
53498;DHT22;39382;47.168;16.008;2023-03-01T01:59:07;-0.30;99.90
53498;DHT22;39382;47.168;16.008;2023-03-01T02:01:33;-0.40;99.90
53498;DHT22;39382;47.168;16.008;2023-03-01T02:03:59;-0.40;99.90
53498;DHT22;39382;47.168;16.008;2023-03-01T02:06:29;-0.30;99.90
53498;DHT22;39382;47.168;16.008;2023-03-01T02:09:02;-0.40;99.90
53498;DHT22;39382;47.168;16.008;2023-03-01T02:11:31;-0.30;99.90
53498;DHT22;39382;47.168;16.008;2023-03-01T02:13:57;-0.30;99.90
53498;DHT22;39382;47.168;16.008;2023-03-01T02:16:23;-0.30;99.90
53498;DHT22;39382;47.168;16.008;2023-03-01T02:18:51;-0.20;99.90
53498;DHT22;39382;47.168;16.008;2023-03-01T02:21:20;-0.30;99.90
53498;DHT22;39382;47.168;16.008;2023-03-01T02:23:50;-0.30;99.90
53498;DHT22;39382;47.168;16.008;2023-03-01T02:26:51;-0.30;99.90
53498;DHT22;39382;47.168;16.008;2023-03-01T02:29:21;-0.40;99.90
53498;DHT22;39382;47.168;16.008;2023-03-01T02:31:47;-0.30;99.90
53498;DHT22;39382;47.168;16.008;2023-03-01T02:34:17;-0.30;99.90
53498;DHT22;39382;47.168;16.008;2023-03-01T02:37:06;-0.30;99.90
53498;DHT22;39382;47.168;16.008;2023-03-01T02:39:39;-0.40;99.90
53498;DHT22;39382;47.168;16.008;2023-03-01T02:42:11;-0.30;99.90
53498;DHT22;39382;47.168;16.008;2023-03-01T02:44:37;-0.30;99.90
53498;DHT22;39382;47.168;16.008;2023-03-01T02:47:04;-0.30;99.90
53498;DHT22;39382;47.168;16.008;2023-03-01T02:49:34;-0.30;99.90
53498;DHT22;39382;47.168;16.008;2023-03-01T02:52:33;-0.20;99.90
53498;DHT22;39382;47.168;16.008;2023-03-01T02:55:14;-0.20;99.90
53498;DHT22;39382;47.168;16.008;2023-03-01T02:57:44;-0.20;99.90
53498;DHT22;39382;47.168;16.008;2023-03-01T03:00:16;-0.20;99.90
53498;DHT22;39382;47.168;16.008;2023-03-01T03:02:46;-0.20;99.90
53498;DHT22;39382;47.168;16.008;2023-03-01T03:05:16;-0.10;99.90
53498;DHT22;39382;47.168;16.008;2023-03-01T03:07:45;-0.10;99.90
53498;DHT22;39382;47.168;16.008;2023-03-01T03:10:17;-0.10;99.90
53498;DHT22;39382;47.168;16.008;2023-03-01T03:12:52;0.00;99.90
53498;DHT22;39382;47.168;16.008;2023-03-01T03:15:18;0.00;99.90
53498;DHT22;39382;47.168;16.008;2023-03-01T03:17:45;0.00;99.90
53498;DHT22;39382;47.168;16.008;2023-03-01T03:20:13;-0.10;99.90
53498;DHT22;39382;47.168;16.008;2023-03-01T03:22:48;-0.10;99.90
53498;DHT22;39382;47.168;16.008;2023-03-01T03:25:14;-0.10;99.90
53498;DHT22;39382;47.168;16.008;2023-03-01T03:27:42;-0.20;99.90
53498;DHT22;39382;47.168;16.008;2023-03-01T03:30:11;-0.10;99.90
53498;DHT22;39382;47.168;16.008;2023-03-01T03:32:42;0.00;99.90
53498;DHT22;39382;47.168;16.008;2023-03-01T03:35:16;0.00;99.90
53498;DHT22;39382;47.168;16.008;2023-03-01T03:37:42;0.10;99.90
53498;DHT22;39382;47.168;16.008;2023-03-01T03:40:28;0.00;99.90
53498;DHT22;39382;47.168;16.008;2023-03-01T03:42:54;0.00;99.90
53498;DHT22;39382;47.168;16.008;2023-03-01T03:45:20;0.00;99.90
53498;DHT22;39382;47.168;16.008;2023-03-01T03:47:46;0.00;99.90
53498;DHT22;39382;47.168;16.008;2023-03-01T03:50:13;0.00;99.90
53498;DHT22;39382;47.168;16.008;2023-03-01T03:52:38;0.90;99.90
53498;DHT22;39382;47.168;16.008;2023-03-01T03:55:05;0.70;99.90
53498;DHT22;39382;47.168;16.008;2023-03-01T03:57:42;0.10;99.90
53498;DHT22;39382;47.168;16.008;2023-03-01T04:00:11;0.20;99.90
53498;DHT22;39382;47.168;16.008;2023-03-01T04:02:43;0.20;99.90
53498;DHT22;39382;47.168;16.008;2023-03-01T04:05:11;0.20;99.90
53498;DHT22;39382;47.168;16.008;2023-03-01T04:07:37;0.40;99.90
53498;DHT22;39382;47.168;16.008;2023-03-01T04:10:05;0.20;99.90
53498;DHT22;39382;47.168;16.008;2023-03-01T04:12:32;0.20;99.90
53498;DHT22;39382;47.168;16.008;2023-03-01T04:15:00;0.30;99.90
53498;DHT22;39382;47.168;16.008;2023-03-01T04:17:25;0.20;99.90
53498;DHT22;39382;47.168;16.008;2023-03-01T04:19:51;0.10;99.90
53498;DHT22;39382;47.168;16.008;2023-03-01T04:22:17;0.20;99.90
53498;DHT22;39382;47.168;16.008;2023-03-01T04:24:44;0.30;99.90
53498;DHT22;39382;47.168;16.008;2023-03-01T04:27:10;1.00;99.90
53498;DHT22;39382;47.168;16.008;2023-03-01T04:29:36;0.40;99.90
53498;DHT22;39382;47.168;16.008;2023-03-01T04:32:02;0.30;99.90
53498;DHT22;39382;47.168;16.008;2023-03-01T04:34:29;0.20;99.90
53498;DHT22;39382;47.168;16.008;2023-03-01T04:36:55;0.60;99.90
53498;DHT22;39382;47.168;16.008;2023-03-01T04:39:21;0.30;99.90
53498;DHT22;39382;47.168;16.008;2023-03-01T04:41:46;1.20;99.90
53498;DHT22;39382;47.168;16.008;2023-03-01T04:44:12;0.30;99.90
53498;DHT22;39382;47.168;16.008;2023-03-01T04:46:38;0.30;99.90
53498;DHT22;39382;47.168;16.008;2023-03-01T04:49:04;0.20;99.90
53498;DHT22;39382;47.168;16.008;2023-03-01T04:51:30;0.30;99.90
53498;DHT22;39382;47.168;16.008;2023-03-01T04:53:58;0.20;99.90
53498;DHT22;39382;47.168;16.008;2023-03-01T04:56:23;0.60;99.90
53498;DHT22;39382;47.168;16.008;2023-03-01T04:58:49;1.00;99.90
53498;DHT22;39382;47.168;16.008;2023-03-01T05:01:20;1.00;99.90
53498;DHT22;39382;47.168;16.008;2023-03-01T05:03:48;0.10;99.90
53498;DHT22;39382;47.168;16.008;2023-03-01T05:06:16;0.20;99.90
53498;DHT22;39382;47.168;16.008;2023-03-01T05:08:42;0.10;99.90
53498;DHT22;39382;47.168;16.008;2023-03-01T05:11:09;0.20;99.90
53498;DHT22;39382;47.168;16.008;2023-03-01T05:13:37;0.70;99.90
53498;DHT22;39382;47.168;16.008;2023-03-01T05:16:04;0.30;99.90
53498;DHT22;39382;47.168;16.008;2023-03-01T05:18:32;0.40;99.90
53498;DHT22;39382;47.168;16.008;2023-03-01T05:21:10;0.40;99.90
53498;DHT22;39382;47.168;16.008;2023-03-01T05:23:36;0.30;99.90
53498;DHT22;39382;47.168;16.008;2023-03-01T05:26:03;0.20;99.90
53498;DHT22;39382;47.168;16.008;2023-03-01T05:28:30;0.30;99.90
53498;DHT22;39382;47.168;16.008;2023-03-01T05:30:56;0.40;99.90
53498;DHT22;39382;47.168;16.008;2023-03-01T05:33:23;0.30;99.90
53498;DHT22;39382;47.168;16.008;2023-03-01T05:35:50;0.60;99.90
53498;DHT22;39382;47.168;16.008;2023-03-01T05:38:17;0.30;99.90
53498;DHT22;39382;47.168;16.008;2023-03-01T05:40:44;0.40;99.90
53498;DHT22;39382;47.168;16.008;2023-03-01T05:43:11;1.40;99.90
53498;DHT22;39382;47.168;16.008;2023-03-01T05:45:38;1.30;99.90
53498;DHT22;39382;47.168;16.008;2023-03-01T05:48:04;1.20;99.90
53498;DHT22;39382;47.168;16.008;2023-03-01T05:50:34;0.90;99.90
53498;DHT22;39382;47.168;16.008;2023-03-01T05:53:03;0.90;99.90
53498;DHT22;39382;47.168;16.008;2023-03-01T05:55:31;0.80;99.90
53498;DHT22;39382;47.168;16.008;2023-03-01T05:58:05;1.10;99.90
53498;DHT22;39382;47.168;16.008;2023-03-01T06:00:31;0.60;99.90
53498;DHT22;39382;47.168;16.008;2023-03-01T06:02:58;0.70;99.90
53498;DHT22;39382;47.168;16.008;2023-03-01T06:05:24;0.60;99.90
53498;DHT22;39382;47.168;16.008;2023-03-01T06:07:51;0.70;99.90
53498;DHT22;39382;47.168;16.008;2023-03-01T06:10:18;1.20;99.90
53498;DHT22;39382;47.168;16.008;2023-03-01T06:12:43;0.70;99.90
53498;DHT22;39382;47.168;16.008;2023-03-01T06:15:11;1.00;99.90
53498;DHT22;39382;47.168;16.008;2023-03-01T06:17:39;0.70;99.90
53498;DHT22;39382;47.168;16.008;2023-03-01T06:20:16;0.70;99.90
53498;DHT22;39382;47.168;16.008;2023-03-01T06:22:43;0.80;99.90
53498;DHT22;39382;47.168;16.008;2023-03-01T06:25:10;0.80;99.90
53498;DHT22;39382;47.168;16.008;2023-03-01T06:27:36;0.80;99.90
53498;DHT22;39382;47.168;16.008;2023-03-01T06:30:02;0.80;99.90
53498;DHT22;39382;47.168;16.008;2023-03-01T06:32:28;0.90;99.90
53498;DHT22;39382;47.168;16.008;2023-03-01T06:34:53;0.90;99.90
53498;DHT22;39382;47.168;16.008;2023-03-01T06:37:19;0.80;99.90
53498;DHT22;39382;47.168;16.008;2023-03-01T06:39:45;0.70;99.90
53498;DHT22;39382;47.168;16.008;2023-03-01T06:42:10;0.60;99.90
53498;DHT22;39382;47.168;16.008;2023-03-01T06:44:36;0.60;99.90
53498;DHT22;39382;47.168;16.008;2023-03-01T06:47:03;0.70;99.90
53498;DHT22;39382;47.168;16.008;2023-03-01T06:49:29;0.70;99.90
53498;DHT22;39382;47.168;16.008;2023-03-01T06:51:55;0.90;99.90
53498;DHT22;39382;47.168;16.008;2023-03-01T06:54:21;0.90;99.90
53498;DHT22;39382;47.168;16.008;2023-03-01T06:56:50;0.90;99.90
53498;DHT22;39382;47.168;16.008;2023-03-01T06:59:16;1.00;99.90
53498;DHT22;39382;47.168;16.008;2023-03-01T07:01:42;1.10;99.90
53498;DHT22;39382;47.168;16.008;2023-03-01T07:04:09;1.10;99.90
53498;DHT22;39382;47.168;16.008;2023-03-01T07:06:34;1.10;99.90
53498;DHT22;39382;47.168;16.008;2023-03-01T07:09:00;1.40;99.90
53498;DHT22;39382;47.168;16.008;2023-03-01T07:11:26;1.10;99.90
53498;DHT22;39382;47.168;16.008;2023-03-01T07:13:51;1.40;99.90
53498;DHT22;39382;47.168;16.008;2023-03-01T07:16:17;1.10;99.90
53498;DHT22;39382;47.168;16.008;2023-03-01T07:18:43;1.10;99.90
53498;DHT22;39382;47.168;16.008;2023-03-01T07:21:09;1.20;99.90
53498;DHT22;39382;47.168;16.008;2023-03-01T07:23:36;1.20;99.90
53498;DHT22;39382;47.168;16.008;2023-03-01T07:26:02;1.30;99.90
53498;DHT22;39382;47.168;16.008;2023-03-01T07:28:28;1.30;99.90
53498;DHT22;39382;47.168;16.008;2023-03-01T07:30:54;1.30;99.90
53498;DHT22;39382;47.168;16.008;2023-03-01T07:33:20;1.30;99.90
53498;DHT22;39382;47.168;16.008;2023-03-01T07:35:46;1.30;99.90
53498;DHT22;39382;47.168;16.008;2023-03-01T07:38:11;1.50;99.90
53498;DHT22;39382;47.168;16.008;2023-03-01T07:40:37;1.30;99.90
53498;DHT22;39382;47.168;16.008;2023-03-01T07:43:03;1.30;99.90
53498;DHT22;39382;47.168;16.008;2023-03-01T07:45:29;1.40;99.90
53498;DHT22;39382;47.168;16.008;2023-03-01T07:47:55;1.40;99.90
53498;DHT22;39382;47.168;16.008;2023-03-01T07:50:22;1.40;99.90
53498;DHT22;39382;47.168;16.008;2023-03-01T07:52:49;1.50;99.90
53498;DHT22;39382;47.168;16.008;2023-03-01T07:55:16;1.40;99.90
53498;DHT22;39382;47.168;16.008;2023-03-01T07:57:42;1.40;99.90
53498;DHT22;39382;47.168;16.008;2023-03-01T08:00:10;1.40;99.90
53498;DHT22;39382;47.168;16.008;2023-03-01T08:02:36;1.50;99.90
53498;DHT22;39382;47.168;16.008;2023-03-01T08:05:02;1.50;99.90
53498;DHT22;39382;47.168;16.008;2023-03-01T08:07:28;1.60;99.90
53498;DHT22;39382;47.168;16.008;2023-03-01T08:09:54;1.70;99.90
53498;DHT22;39382;47.168;16.008;2023-03-01T08:12:19;1.70;99.90
53498;DHT22;39382;47.168;16.008;2023-03-01T08:14:45;3.20;99.90
53498;DHT22;39382;47.168;16.008;2023-03-01T08:17:13;3.20;99.90
53498;DHT22;39382;47.168;16.008;2023-03-01T08:19:39;3.00;99.90
53498;DHT22;39382;47.168;16.008;2023-03-01T08:22:05;2.80;99.90
53498;DHT22;39382;47.168;16.008;2023-03-01T08:24:30;2.60;99.90
53498;DHT22;39382;47.168;16.008;2023-03-01T08:26:56;2.40;99.90
53498;DHT22;39382;47.168;16.008;2023-03-01T08:29:22;2.40;99.90
53498;DHT22;39382;47.168;16.008;2023-03-01T08:31:50;2.60;99.90
53498;DHT22;39382;47.168;16.008;2023-03-01T08:34:17;2.60;99.90
53498;DHT22;39382;47.168;16.008;2023-03-01T08:36:44;2.70;99.90
53498;DHT22;39382;47.168;16.008;2023-03-01T08:39:13;2.80;99.90
53498;DHT22;39382;47.168;16.008;2023-03-01T08:41:39;2.80;99.90
53498;DHT22;39382;47.168;16.008;2023-03-01T08:44:05;2.80;99.90
53498;DHT22;39382;47.168;16.008;2023-03-01T08:46:37;2.80;99.90
53498;DHT22;39382;47.168;16.008;2023-03-01T08:49:05;2.90;99.90
53498;DHT22;39382;47.168;16.008;2023-03-01T08:51:31;3.00;99.90
53498;DHT22;39382;47.168;16.008;2023-03-01T08:54:05;3.20;99.90
53498;DHT22;39382;47.168;16.008;2023-03-01T08:56:31;3.30;99.60
53498;DHT22;39382;47.168;16.008;2023-03-01T08:58:57;3.30;99.10
53498;DHT22;39382;47.168;16.008;2023-03-01T09:01:22;3.50;97.70
53498;DHT22;39382;47.168;16.008;2023-03-01T09:03:48;3.60;97.00
53498;DHT22;39382;47.168;16.008;2023-03-01T09:06:14;3.60;96.70
53498;DHT22;39382;47.168;16.008;2023-03-01T09:08:43;3.60;96.20
53498;DHT22;39382;47.168;16.008;2023-03-01T09:11:11;3.60;96.00
53498;DHT22;39382;47.168;16.008;2023-03-01T09:13:38;3.70;95.80
53498;DHT22;39382;47.168;16.008;2023-03-01T09:16:05;3.70;95.50
53498;DHT22;39382;47.168;16.008;2023-03-01T09:18:31;3.80;95.00
53498;DHT22;39382;47.168;16.008;2023-03-01T09:21:02;3.90;93.90
53498;DHT22;39382;47.168;16.008;2023-03-01T09:23:28;3.80;93.80
53498;DHT22;39382;47.168;16.008;2023-03-01T09:25:53;3.80;93.00
53498;DHT22;39382;47.168;16.008;2023-03-01T09:28:19;5.00;99.30
53498;DHT22;39382;47.168;16.008;2023-03-01T09:30:44;5.90;95.70
53498;DHT22;39382;47.168;16.008;2023-03-01T09:33:10;6.10;91.60
53498;DHT22;39382;47.168;16.008;2023-03-01T09:35:40;5.80;90.10
53498;DHT22;39382;47.168;16.008;2023-03-01T09:38:11;5.40;88.60
53498;DHT22;39382;47.168;16.008;2023-03-01T09:40:42;5.00;89.00
53498;DHT22;39382;47.168;16.008;2023-03-01T09:45:41;4.40;91.40
53498;DHT22;39382;47.168;16.008;2023-03-01T09:48:15;4.20;91.90
53498;DHT22;39382;47.168;16.008;2023-03-01T09:50:43;4.20;92.10
53498;DHT22;39382;47.168;16.008;2023-03-01T09:53:20;4.20;92.00
53498;DHT22;39382;47.168;16.008;2023-03-01T09:55:59;4.20;92.00
53498;DHT22;39382;47.168;16.008;2023-03-01T09:59:05;4.20;92.60
53498;DHT22;39382;47.168;16.008;2023-03-01T10:01:59;4.30;93.40
53498;DHT22;39382;47.168;16.008;2023-03-01T10:04:32;4.10;93.10
53498;DHT22;39382;47.168;16.008;2023-03-01T10:09:52;4.50;93.60
53498;DHT22;39382;47.168;16.008;2023-03-01T10:12:20;4.60;93.30
53498;DHT22;39382;47.168;16.008;2023-03-01T10:20:20;5.10;92.60
53498;DHT22;39382;47.168;16.008;2023-03-01T10:22:47;5.00;92.70
53498;DHT22;39382;47.168;16.008;2023-03-01T10:25:19;5.00;93.20
53498;DHT22;39382;47.168;16.008;2023-03-01T10:27:52;4.80;92.80
53498;DHT22;39382;47.168;16.008;2023-03-01T10:30:29;4.90;93.40
53498;DHT22;39382;47.168;16.008;2023-03-01T10:32:58;5.00;93.10
53498;DHT22;39382;47.168;16.008;2023-03-01T10:35:27;5.00;93.60
53498;DHT22;39382;47.168;16.008;2023-03-01T10:38:08;5.10;93.40
53498;DHT22;39382;47.168;16.008;2023-03-01T10:40:36;5.30;93.30
53498;DHT22;39382;47.168;16.008;2023-03-01T10:43:04;5.30;93.00
53498;DHT22;39382;47.168;16.008;2023-03-01T10:48:23;5.10;93.10
53498;DHT22;39382;47.168;16.008;2023-03-01T10:51:14;5.10;93.30
53498;DHT22;39382;47.168;16.008;2023-03-01T10:53:47;5.30;93.30
53498;DHT22;39382;47.168;16.008;2023-03-01T10:56:14;5.20;92.80
53498;DHT22;39382;47.168;16.008;2023-03-01T10:59:03;5.30;92.90
53498;DHT22;39382;47.168;16.008;2023-03-01T11:01:32;5.30;92.70
53498;DHT22;39382;47.168;16.008;2023-03-01T11:06:34;5.40;92.30
53498;DHT22;39382;47.168;16.008;2023-03-01T11:09:18;5.60;91.90
53498;DHT22;39382;47.168;16.008;2023-03-01T11:11:45;5.70;91.60
53498;DHT22;39382;47.168;16.008;2023-03-01T11:14:30;5.50;91.60
53498;DHT22;39382;47.168;16.008;2023-03-01T11:17:03;5.50;92.30
53498;DHT22;39382;47.168;16.008;2023-03-01T11:19:29;5.50;92.20
53498;DHT22;39382;47.168;16.008;2023-03-01T11:22:11;5.50;92.20
53498;DHT22;39382;47.168;16.008;2023-03-01T11:24:47;5.70;92.80
53498;DHT22;39382;47.168;16.008;2023-03-01T11:27:33;5.90;92.30
53498;DHT22;39382;47.168;16.008;2023-03-01T11:30:06;6.00;91.40
53498;DHT22;39382;47.168;16.008;2023-03-01T11:32:40;6.10;91.40
53498;DHT22;39382;47.168;16.008;2023-03-01T11:35:19;6.30;91.20
53498;DHT22;39382;47.168;16.008;2023-03-01T11:40:24;6.20;91.70
53498;DHT22;39382;47.168;16.008;2023-03-01T11:43:03;6.50;91.40
53498;DHT22;39382;47.168;16.008;2023-03-01T11:50:57;6.60;90.70
53498;DHT22;39382;47.168;16.008;2023-03-01T11:56:49;6.60;90.90
53498;DHT22;39382;47.168;16.008;2023-03-01T12:07:37;6.50;91.60
53498;DHT22;39382;47.168;16.008;2023-03-01T12:10:28;6.20;92.10
53498;DHT22;39382;47.168;16.008;2023-03-01T12:15:55;6.30;92.50
53498;DHT22;39382;47.168;16.008;2023-03-01T12:30:13;7.10;91.10
53498;DHT22;39382;47.168;16.008;2023-03-01T12:41:10;6.90;91.60
53498;DHT22;39382;47.168;16.008;2023-03-01T12:49:46;7.10;91.70
53498;DHT22;39382;47.168;16.008;2023-03-01T12:52:29;6.80;91.60
53498;DHT22;39382;47.168;16.008;2023-03-01T12:55:02;6.90;91.40
53498;DHT22;39382;47.168;16.008;2023-03-01T12:57:45;7.00;91.40
53498;DHT22;39382;47.168;16.008;2023-03-01T13:11:21;7.20;91.20
53498;DHT22;39382;47.168;16.008;2023-03-01T13:13:48;7.20;91.20
53498;DHT22;39382;47.168;16.008;2023-03-01T13:19:19;7.10;91.70
53498;DHT22;39382;47.168;16.008;2023-03-01T13:21:47;7.30;91.60
53498;DHT22;39382;47.168;16.008;2023-03-01T13:29:51;7.30;91.60
53498;DHT22;39382;47.168;16.008;2023-03-01T13:32:32;7.30;91.40
53498;DHT22;39382;47.168;16.008;2023-03-01T13:37:46;7.10;92.00
53498;DHT22;39382;47.168;16.008;2023-03-01T13:42:51;7.10;92.00
53498;DHT22;39382;47.168;16.008;2023-03-01T13:45:25;7.10;92.20
53498;DHT22;39382;47.168;16.008;2023-03-01T13:48:00;7.00;92.70
53498;DHT22;39382;47.168;16.008;2023-03-01T13:50:38;6.70;92.80
53498;DHT22;39382;47.168;16.008;2023-03-01T13:53:13;6.70;93.20
53498;DHT22;39382;47.168;16.008;2023-03-01T13:55:43;6.80;93.10
53498;DHT22;39382;47.168;16.008;2023-03-01T13:58:24;6.70;93.20
53498;DHT22;39382;47.168;16.008;2023-03-01T14:01:04;6.80;93.70
53498;DHT22;39382;47.168;16.008;2023-03-01T14:03:32;6.80;93.70
53498;DHT22;39382;47.168;16.008;2023-03-01T14:06:07;6.70;93.90
53498;DHT22;39382;47.168;16.008;2023-03-01T14:08:35;6.70;94.20
53498;DHT22;39382;47.168;16.008;2023-03-01T14:19:23;6.60;93.50
53498;DHT22;39382;47.168;16.008;2023-03-01T14:22:26;7.30;99.00
53498;DHT22;39382;47.168;16.008;2023-03-01T14:25:05;7.10;94.40
53498;DHT22;39382;47.168;16.008;2023-03-01T14:27:39;6.80;95.00
53498;DHT22;39382;47.168;16.008;2023-03-01T14:30:27;6.70;95.40
53498;DHT22;39382;47.168;16.008;2023-03-01T14:33:02;6.60;96.10
53498;DHT22;39382;47.168;16.008;2023-03-01T14:35:31;6.60;96.40
53498;DHT22;39382;47.168;16.008;2023-03-01T14:37:57;6.90;98.30
53498;DHT22;39382;47.168;16.008;2023-03-01T14:40:29;6.70;96.40
53498;DHT22;39382;47.168;16.008;2023-03-01T14:42:58;6.70;96.90
53498;DHT22;39382;47.168;16.008;2023-03-01T14:45:26;6.70;96.60
53498;DHT22;39382;47.168;16.008;2023-03-01T14:47:52;6.60;96.70
53498;DHT22;39382;47.168;16.008;2023-03-01T14:50:26;6.60;96.80
53498;DHT22;39382;47.168;16.008;2023-03-01T14:52:55;6.50;96.90
53498;DHT22;39382;47.168;16.008;2023-03-01T14:57:52;6.40;98.10
53498;DHT22;39382;47.168;16.008;2023-03-01T15:00:24;6.50;98.70
53498;DHT22;39382;47.168;16.008;2023-03-01T15:02:52;6.60;99.20
53498;DHT22;39382;47.168;16.008;2023-03-01T15:05:30;6.50;99.90
53498;DHT22;39382;47.168;16.008;2023-03-01T15:07:59;6.40;99.90
53498;DHT22;39382;47.168;16.008;2023-03-01T15:10:31;6.30;99.90
53498;DHT22;39382;47.168;16.008;2023-03-01T15:13:21;6.10;99.90
53498;DHT22;39382;47.168;16.008;2023-03-01T15:15:48;6.10;99.90
53498;DHT22;39382;47.168;16.008;2023-03-01T15:18:26;6.00;99.90
53498;DHT22;39382;47.168;16.008;2023-03-01T15:20:53;6.10;99.90
53498;DHT22;39382;47.168;16.008;2023-03-01T15:28:33;5.90;99.90
53498;DHT22;39382;47.168;16.008;2023-03-01T15:33:46;5.80;99.90
53498;DHT22;39382;47.168;16.008;2023-03-01T15:36:38;5.90;99.90
53498;DHT22;39382;47.168;16.008;2023-03-01T15:39:05;5.80;99.90
53498;DHT22;39382;47.168;16.008;2023-03-01T15:41:47;5.80;99.90
53498;DHT22;39382;47.168;16.008;2023-03-01T15:44:18;5.70;99.90
53498;DHT22;39382;47.168;16.008;2023-03-01T15:46:50;5.70;99.90
53498;DHT22;39382;47.168;16.008;2023-03-01T15:49:38;5.60;99.90
53498;DHT22;39382;47.168;16.008;2023-03-01T15:52:28;5.70;99.90
53498;DHT22;39382;47.168;16.008;2023-03-01T15:55:00;5.60;99.90
53498;DHT22;39382;47.168;16.008;2023-03-01T15:57:26;5.50;99.90
53498;DHT22;39382;47.168;16.008;2023-03-01T15:59:52;5.50;99.90
53498;DHT22;39382;47.168;16.008;2023-03-01T16:02:18;5.50;99.90
53498;DHT22;39382;47.168;16.008;2023-03-01T16:04:46;5.40;99.90
53498;DHT22;39382;47.168;16.008;2023-03-01T16:07:12;5.40;99.90
53498;DHT22;39382;47.168;16.008;2023-03-01T16:09:37;5.40;99.90
53498;DHT22;39382;47.168;16.008;2023-03-01T16:12:03;5.30;99.90
53498;DHT22;39382;47.168;16.008;2023-03-01T16:14:29;5.20;99.90
53498;DHT22;39382;47.168;16.008;2023-03-01T16:16:54;5.20;99.90
53498;DHT22;39382;47.168;16.008;2023-03-01T16:19:20;5.10;99.90
53498;DHT22;39382;47.168;16.008;2023-03-01T16:21:46;5.10;99.90
53498;DHT22;39382;47.168;16.008;2023-03-01T16:24:14;5.10;99.90
53498;DHT22;39382;47.168;16.008;2023-03-01T16:26:40;5.10;99.90
53498;DHT22;39382;47.168;16.008;2023-03-01T16:29:05;5.10;99.90
53498;DHT22;39382;47.168;16.008;2023-03-01T16:31:31;5.00;99.90
53498;DHT22;39382;47.168;16.008;2023-03-01T16:33:58;5.10;99.90
53498;DHT22;39382;47.168;16.008;2023-03-01T16:36:26;5.10;99.90
53498;DHT22;39382;47.168;16.008;2023-03-01T16:38:54;5.10;99.90
53498;DHT22;39382;47.168;16.008;2023-03-01T16:41:21;5.10;99.90
53498;DHT22;39382;47.168;16.008;2023-03-01T16:43:48;5.10;99.90
53498;DHT22;39382;47.168;16.008;2023-03-01T16:46:19;5.10;99.90
53498;DHT22;39382;47.168;16.008;2023-03-01T16:48:46;5.10;99.90
53498;DHT22;39382;47.168;16.008;2023-03-01T16:51:12;5.10;99.90
53498;DHT22;39382;47.168;16.008;2023-03-01T16:53:38;5.00;99.90
53498;DHT22;39382;47.168;16.008;2023-03-01T16:56:06;4.90;99.90
53498;DHT22;39382;47.168;16.008;2023-03-01T16:58:33;4.90;99.90
53498;DHT22;39382;47.168;16.008;2023-03-01T17:01:08;4.90;99.90
53498;DHT22;39382;47.168;16.008;2023-03-01T17:03:33;4.80;99.90
53498;DHT22;39382;47.168;16.008;2023-03-01T17:06:08;4.80;99.90
53498;DHT22;39382;47.168;16.008;2023-03-01T17:08:34;4.80;99.90
53498;DHT22;39382;47.168;16.008;2023-03-01T17:11:12;4.70;99.90
53498;DHT22;39382;47.168;16.008;2023-03-01T17:13:38;4.60;99.90
53498;DHT22;39382;47.168;16.008;2023-03-01T17:16:06;4.70;99.90
53498;DHT22;39382;47.168;16.008;2023-03-01T17:18:32;4.70;99.90
53498;DHT22;39382;47.168;16.008;2023-03-01T17:20:58;4.70;99.90
53498;DHT22;39382;47.168;16.008;2023-03-01T17:23:24;4.70;99.90
53498;DHT22;39382;47.168;16.008;2023-03-01T17:25:51;4.70;99.90
53498;DHT22;39382;47.168;16.008;2023-03-01T17:28:18;4.60;99.90
53498;DHT22;39382;47.168;16.008;2023-03-01T17:30:44;4.60;99.90
53498;DHT22;39382;47.168;16.008;2023-03-01T17:33:12;4.50;99.90
53498;DHT22;39382;47.168;16.008;2023-03-01T17:35:38;4.50;99.90